Time;durP1;ratioP1;P1;durP2;ratioP2;P2;SDS_P1;SDS_P2;PMS_P1;PMS_P2;Temp;Humidity;BMP_temperature;BMP_pressure;BME280_temperature;BME280_humidity;BME280_pressure;Samples;Min_cycle;Max_cycle;Signal;HPM_P1;HPM_P2
2022/12/30 00:02:05;;;;;;;7.97;3.40;;;;;;;;;;5070904;28;20477;-74
2022/12/30 00:04:57;;;;;;;5.87;2.97;;;;;;;;;;5073082;28;20837;-74
2022/12/30 00:07:47;;;;;;;5.73;3.03;;;;;;;;;;5074878;28;20540;-77
2022/12/30 00:10:35;;;;;;;6.67;3.00;;;;;;;;;;5067502;28;20500;-76
2022/12/30 00:35:27;;;;;;;9.00;4.03;;;;;;;;;;5072419;28;20448;-75
2022/12/30 00:38:16;;;;;;;8.17;4.00;;;;;;;;;;5077989;28;20473;-75
2022/12/30 00:44:22;;;;;;;7.90;3.90;;;;;;;;;;5077643;28;20838;-74
2022/12/30 00:47:12;;;;;;;5.37;3.83;;;;;;;;;;5075867;28;21007;-76
2022/12/30 00:56:22;;;;;;;5.87;3.80;;;;;;;;;;5077454;28;20446;-75
2022/12/30 00:59:13;;;;;;;5.37;3.70;;;;;;;;;;5070192;28;21468;-75
2022/12/30 01:02:07;;;;;;;4.23;3.27;;;;;;;;;;5076822;28;20481;-76
2022/12/30 01:05:05;;;;;;;6.37;3.53;;;;;;;;;;5080720;28;20472;-77
2022/12/30 01:07:55;;;;;;;10.13;4.10;;;;;;;;;;5083278;28;20481;-77
2022/12/30 01:10:59;;;;;;;9.30;4.20;;;;;;;;;;5078297;28;20473;-77
2022/12/30 01:13:51;;;;;;;7.53;4.40;;;;;;;;;;5079754;28;20453;-75
2022/12/30 01:16:39;;;;;;;8.60;4.53;;;;;;;;;;5079250;28;20445;-76
2022/12/30 01:19:28;;;;;;;7.60;4.43;;;;;;;;;;5079015;28;20476;-75
2022/12/30 01:22:18;;;;;;;8.57;4.03;;;;;;;;;;5078885;28;20572;-76
2022/12/30 01:25:07;;;;;;;8.03;4.17;;;;;;;;;;5078507;28;20453;-74
2022/12/30 01:28:02;;;;;;;4.40;3.60;;;;;;;;;;5081165;28;20544;-74
2022/12/30 01:30:54;;;;;;;7.80;4.47;;;;;;;;;;5076513;28;20477;-75
2022/12/30 01:33:42;;;;;;;7.60;4.10;;;;;;;;;;5082188;28;20457;-74
2022/12/30 01:36:33;;;;;;;5.77;4.30;;;;;;;;;;5081193;28;20450;-74
2022/12/30 01:39:26;;;;;;;9.57;4.50;;;;;;;;;;5080639;28;21027;-75
2022/12/30 01:42:18;;;;;;;10.30;4.70;;;;;;;;;;5079794;28;20492;-75
2022/12/30 01:45:23;;;;;;;6.37;3.90;;;;;;;;;;5078607;28;20471;-74
2022/12/30 01:48:14;;;;;;;12.10;5.70;;;;;;;;;;5079485;28;20539;-76
2022/12/30 01:51:07;;;;;;;8.90;4.07;;;;;;;;;;5077269;28;20481;-75
2022/12/30 01:53:59;;;;;;;7.97;4.07;;;;;;;;;;5079026;28;20454;-74
2022/12/30 01:57:01;;;;;;;7.50;4.00;;;;;;;;;;5080694;28;20449;-76
2022/12/30 01:59:52;;;;;;;14.47;4.17;;;;;;;;;;5080805;28;20515;-75
2022/12/30 02:02:43;;;;;;;8.93;3.90;;;;;;;;;;5073012;28;21014;-76
2022/12/30 02:05:37;;;;;;;9.80;3.73;;;;;;;;;;5073011;28;20465;-76
2022/12/30 02:08:37;;;;;;;7.17;3.60;;;;;;;;;;5071176;28;20484;-76
2022/12/30 02:11:29;;;;;;;7.67;3.53;;;;;;;;;;5079548;28;20578;-76
2022/12/30 02:14:23;;;;;;;7.80;3.60;;;;;;;;;;5080076;28;20480;-75
2022/12/30 02:17:24;;;;;;;6.00;3.80;;;;;;;;;;5079060;28;20458;-74
2022/12/30 02:20:38;;;;;;;10.00;3.73;;;;;;;;;;5075857;28;20490;-76
2022/12/30 02:23:41;;;;;;;5.43;3.87;;;;;;;;;;5014597;28;21363;-75
2022/12/30 02:26:39;;;;;;;7.40;3.73;;;;;;;;;;5075074;28;20475;-75
2022/12/30 02:29:49;;;;;;;12.47;4.07;;;;;;;;;;5078939;28;20847;-75
2022/12/30 02:32:48;;;;;;;12.33;3.93;;;;;;;;;;5059347;28;20477;-76
2022/12/30 02:35:44;;;;;;;6.33;3.93;;;;;;;;;;5060707;28;20819;-76
2022/12/30 02:38:38;;;;;;;8.27;4.30;;;;;;;;;;5050976;28;20897;-75
2022/12/30 02:44:44;;;;;;;9.23;4.80;;;;;;;;;;5074720;28;20592;-76
2022/12/30 02:47:40;;;;;;;10.33;4.73;;;;;;;;;;5078312;28;21041;-76
2022/12/30 02:53:41;;;;;;;10.93;4.40;;;;;;;;;;5078297;28;20813;-77
2022/12/30 02:56:31;;;;;;;11.80;4.60;;;;;;;;;;5077581;28;20442;-74
2022/12/30 03:06:05;;;;;;;7.20;4.30;;;;;;;;;;5018709;28;20452;-73
2022/12/30 03:08:59;;;;;;;9.03;4.17;;;;;;;;;;5018566;28;20545;-75
2022/12/30 03:11:54;;;;;;;15.27;4.43;;;;;;;;;;5075795;28;20492;-76
2022/12/30 03:14:50;;;;;;;9.10;4.20;;;;;;;;;;5081254;28;20453;-74
2022/12/30 03:17:41;;;;;;;8.30;3.73;;;;;;;;;;5077564;28;21066;-75
2022/12/30 03:20:36;;;;;;;10.60;4.17;;;;;;;;;;5073133;28;20461;-76
2022/12/30 03:29:54;;;;;;;8.87;3.87;;;;;;;;;;5078906;28;20468;-75
2022/12/30 03:32:47;;;;;;;8.20;3.73;;;;;;;;;;5065711;28;20481;-73
2022/12/30 03:35:38;;;;;;;11.50;4.37;;;;;;;;;;5079999;28;20531;-74
2022/12/30 03:38:30;;;;;;;9.40;4.03;;;;;;;;;;5075008;28;20865;-73
2022/12/30 03:41:20;;;;;;;10.77;3.97;;;;;;;;;;5078980;28;20484;-73
2022/12/30 03:44:11;;;;;;;10.63;4.60;;;;;;;;;;5080210;28;20449;-73
2022/12/30 03:47:01;;;;;;;10.63;4.00;;;;;;;;;;5077403;28;20509;-74
2022/12/30 03:49:52;;;;;;;10.43;3.90;;;;;;;;;;5078281;28;20470;-74
2022/12/30 03:52:46;;;;;;;8.77;4.00;;;;;;;;;;5076152;28;20477;-74
2022/12/30 03:55:36;;;;;;;8.37;3.90;;;;;;;;;;5076245;28;20980;-74
2022/12/30 03:58:27;;;;;;;13.00;4.13;;;;;;;;;;5075498;28;21213;-73
2022/12/30 04:01:17;;;;;;;11.90;4.33;;;;;;;;;;5072135;28;20474;-73
2022/12/30 04:04:10;;;;;;;11.23;5.60;;;;;;;;;;5075137;28;20453;-73
2022/12/30 04:06:59;;;;;;;8.63;4.50;;;;;;;;;;5080396;28;20510;-75
2022/12/30 04:09:48;;;;;;;9.70;3.90;;;;;;;;;;5078775;28;20469;-76
2022/12/30 04:12:40;;;;;;;8.63;4.03;;;;;;;;;;5068033;28;20493;-76
2022/12/30 04:15:30;;;;;;;6.87;4.30;;;;;;;;;;5079088;28;21257;-75
2022/12/30 04:18:23;;;;;;;9.87;4.87;;;;;;;;;;5074553;28;20960;-74
2022/12/30 04:21:14;;;;;;;10.37;5.23;;;;;;;;;;5076116;28;20956;-74
2022/12/30 04:24:06;;;;;;;12.37;5.37;;;;;;;;;;5075474;28;20514;-73
2022/12/30 04:26:55;;;;;;;9.13;4.37;;;;;;;;;;5077229;28;20461;-73
2022/12/30 04:29:46;;;;;;;7.00;3.60;;;;;;;;;;5076516;28;20484;-75
2022/12/30 04:32:35;;;;;;;6.50;3.60;;;;;;;;;;5075565;28;20489;-75
2022/12/30 04:35:28;;;;;;;7.83;4.20;;;;;;;;;;5077940;28;20479;-74
2022/12/30 04:38:25;;;;;;;8.60;4.00;;;;;;;;;;5076323;28;20462;-74
2022/12/30 04:41:14;;;;;;;12.03;4.60;;;;;;;;;;5077564;28;20532;-77
2022/12/30 04:44:04;;;;;;;8.97;3.20;;;;;;;;;;5074239;28;21456;-76
2022/12/30 04:46:54;;;;;;;9.97;4.30;;;;;;;;;;5076543;28;20475;-76
2022/12/30 04:49:43;;;;;;;11.73;4.00;;;;;;;;;;5075868;28;20475;-75
2022/12/30 04:52:32;;;;;;;6.70;4.07;;;;;;;;;;5055401;28;20477;-75
2022/12/30 04:55:20;;;;;;;12.90;4.10;;;;;;;;;;5056637;28;20454;-76
2022/12/30 04:58:13;;;;;;;9.23;3.40;;;;;;;;;;5060039;28;20544;-75
2022/12/30 05:01:08;;;;;;;10.43;3.87;;;;;;;;;;5068654;28;20457;-75
2022/12/30 05:04:00;;;;;;;6.90;3.43;;;;;;;;;;5079633;28;20473;-77
2022/12/30 05:06:53;;;;;;;10.87;3.77;;;;;;;;;;5076862;28;20450;-77
2022/12/30 05:09:44;;;;;;;13.43;3.97;;;;;;;;;;5079539;28;20472;-75
2022/12/30 05:12:39;;;;;;;5.90;2.90;;;;;;;;;;5078071;28;20845;-76
2022/12/30 05:15:35;;;;;;;11.70;3.47;;;;;;;;;;5077562;28;20463;-75
2022/12/30 05:18:29;;;;;;;12.30;4.03;;;;;;;;;;5077939;28;21002;-75
2022/12/30 05:21:19;;;;;;;7.40;3.63;;;;;;;;;;5077623;28;20549;-77
2022/12/30 05:27:16;;;;;;;11.20;4.00;;;;;;;;;;5078204;28;20442;-76
2022/12/30 05:30:08;;;;;;;9.20;3.90;;;;;;;;;;5077082;28;20457;-76
2022/12/30 05:32:57;;;;;;;6.50;3.90;;;;;;;;;;5078275;28;21010;-75
2022/12/30 05:35:49;;;;;;;11.63;4.20;;;;;;;;;;5076458;28;20501;-76
2022/12/30 05:38:39;;;;;;;12.10;3.73;;;;;;;;;;5074407;28;20516;-76
2022/12/30 05:41:27;;;;;;;9.97;4.93;;;;;;;;;;5076760;28;20498;-74
2022/12/30 05:44:21;;;;;;;6.30;3.77;;;;;;;;;;5078998;28;20820;-75
2022/12/30 05:47:12;;;;;;;12.90;4.70;;;;;;;;;;5075258;28;20453;-75
2022/12/30 05:50:05;;;;;;;8.10;4.50;;;;;;;;;;5077766;28;21037;-78
2022/12/30 05:52:55;;;;;;;10.87;4.73;;;;;;;;;;5081030;28;20548;-75
2022/12/30 05:55:46;;;;;;;8.67;4.87;;;;;;;;;;5078783;28;20519;-77
2022/12/30 05:58:36;;;;;;;7.70;4.30;;;;;;;;;;5080867;28;20470;-75
2022/12/30 06:01:26;;;;;;;8.20;4.80;;;;;;;;;;5080563;28;20980;-76
2022/12/30 06:04:17;;;;;;;10.00;4.70;;;;;;;;;;5081015;28;20449;-75
2022/12/30 06:07:11;;;;;;;9.87;5.30;;;;;;;;;;5078884;28;21044;-75
2022/12/30 06:10:04;;;;;;;10.27;4.80;;;;;;;;;;5076568;28;20485;-74
2022/12/30 06:12:54;;;;;;;8.13;4.87;;;;;;;;;;5080620;28;20458;-75
2022/12/30 06:15:44;;;;;;;10.27;5.77;;;;;;;;;;5079129;28;20447;-76
2022/12/30 06:18:41;;;;;;;8.13;4.93;;;;;;;;;;5080573;28;20473;-76
2022/12/30 06:21:31;;;;;;;7.20;5.00;;;;;;;;;;5080464;28;20506;-76
2022/12/30 06:24:27;;;;;;;11.40;5.17;;;;;;;;;;5078523;28;20478;-75
2022/12/30 06:27:17;;;;;;;10.00;5.00;;;;;;;;;;5078957;28;20475;-74
2022/12/30 06:30:10;;;;;;;6.23;5.30;;;;;;;;;;5081719;28;21004;-77
2022/12/30 06:33:06;;;;;;;9.67;4.40;;;;;;;;;;5077588;28;20854;-76
2022/12/30 06:35:57;;;;;;;9.90;4.90;;;;;;;;;;5076540;28;20450;-76
2022/12/30 06:38:48;;;;;;;7.30;4.43;;;;;;;;;;5075858;28;20597;-75
2022/12/30 06:41:36;;;;;;;8.57;5.13;;;;;;;;;;5071045;28;20490;-74
2022/12/30 06:44:28;;;;;;;9.50;4.50;;;;;;;;;;5080299;28;20457;-75
2022/12/30 06:47:19;;;;;;;9.67;5.20;;;;;;;;;;5078868;28;20595;-76
2022/12/30 06:50:17;;;;;;;9.07;4.40;;;;;;;;;;5079753;28;20472;-76
2022/12/30 06:53:11;;;;;;;10.87;5.40;;;;;;;;;;5081249;28;20541;-75
2022/12/30 06:56:03;;;;;;;12.67;5.50;;;;;;;;;;5075596;28;20456;-75
2022/12/30 06:58:54;;;;;;;7.60;4.90;;;;;;;;;;5080936;28;20470;-75
2022/12/30 07:01:43;;;;;;;10.77;5.30;;;;;;;;;;5075588;28;20481;-75
2022/12/30 07:04:36;;;;;;;10.13;5.43;;;;;;;;;;5081261;28;20817;-75
2022/12/30 07:07:31;;;;;;;12.77;4.90;;;;;;;;;;5081493;28;20457;-75
2022/12/30 07:10:21;;;;;;;9.07;4.40;;;;;;;;;;5080382;28;20596;-76
2022/12/30 07:13:13;;;;;;;9.13;4.90;;;;;;;;;;5081976;28;20510;-75
2022/12/30 07:16:08;;;;;;;8.27;4.97;;;;;;;;;;5082448;28;20440;-74
2022/12/30 07:18:59;;;;;;;9.13;4.90;;;;;;;;;;5078691;28;20548;-75
2022/12/30 07:21:51;;;;;;;8.70;4.67;;;;;;;;;;5079123;28;21441;-76
2022/12/30 07:24:41;;;;;;;9.73;5.27;;;;;;;;;;5077119;28;20976;-74
2022/12/30 07:27:34;;;;;;;12.50;5.07;;;;;;;;;;5076208;28;20450;-75
2022/12/30 07:30:23;;;;;;;9.60;4.30;;;;;;;;;;5074283;28;20584;-76
2022/12/30 07:33:11;;;;;;;11.27;4.80;;;;;;;;;;5069898;28;20484;-76
2022/12/30 07:36:02;;;;;;;9.80;4.97;;;;;;;;;;5072326;28;20449;-77
2022/12/30 07:38:53;;;;;;;7.80;4.27;;;;;;;;;;5075068;28;21295;-75
2022/12/30 07:41:42;;;;;;;8.50;4.90;;;;;;;;;;5060576;28;21082;-73
2022/12/30 07:44:30;;;;;;;11.10;5.00;;;;;;;;;;5071074;28;21433;-77
2022/12/30 07:47:19;;;;;;;8.13;4.30;;;;;;;;;;5072382;28;20682;-75
2022/12/30 07:50:08;;;;;;;11.53;5.13;;;;;;;;;;5074243;28;20481;-78
2022/12/30 07:52:57;;;;;;;9.63;4.77;;;;;;;;;;5071895;28;20456;-77
2022/12/30 07:55:47;;;;;;;11.23;4.77;;;;;;;;;;5078428;28;20453;-77
2022/12/30 07:58:38;;;;;;;8.60;5.47;;;;;;;;;;5076768;28;20469;-78
2022/12/30 08:01:27;;;;;;;10.10;6.40;;;;;;;;;;5076686;28;20556;-77
2022/12/30 08:04:16;;;;;;;8.87;5.17;;;;;;;;;;5045436;28;20454;-77
2022/12/30 08:07:26;;;;;;;9.07;4.67;;;;;;;;;;5074633;28;20472;-76
2022/12/30 08:10:14;;;;;;;9.63;4.00;;;;;;;;;;5073538;28;20552;-76
2022/12/30 08:13:05;;;;;;;7.53;4.80;;;;;;;;;;5072087;28;20452;-77
2022/12/30 08:15:53;;;;;;;11.93;4.27;;;;;;;;;;5075646;28;20467;-76
2022/12/30 08:18:42;;;;;;;7.33;3.90;;;;;;;;;;5073156;28;21143;-76
2022/12/30 08:21:31;;;;;;;10.33;4.53;;;;;;;;;;5077424;28;20473;-74
2022/12/30 08:24:19;;;;;;;9.87;5.40;;;;;;;;;;5079522;28;20471;-75
2022/12/30 08:27:08;;;;;;;12.47;4.10;;;;;;;;;;5069107;28;20450;-76
2022/12/30 08:29:58;;;;;;;11.90;4.90;;;;;;;;;;5073098;28;20477;-76
2022/12/30 08:32:46;;;;;;;9.90;4.03;;;;;;;;;;5078192;28;20552;-75
2022/12/30 08:35:35;;;;;;;8.50;3.77;;;;;;;;;;5078654;28;20488;-75
2022/12/30 08:38:23;;;;;;;8.77;4.73;;;;;;;;;;5077547;28;20485;-77
2022/12/30 08:41:13;;;;;;;9.93;4.00;;;;;;;;;;5071363;28;20596;-76
2022/12/30 08:44:02;;;;;;;10.10;4.20;;;;;;;;;;5076427;28;20961;-75
2022/12/30 08:46:53;;;;;;;9.67;3.50;;;;;;;;;;5076600;28;20454;-75
2022/12/30 08:49:41;;;;;;;10.13;4.50;;;;;;;;;;5079288;28;21024;-73
2022/12/30 08:52:30;;;;;;;9.00;4.10;;;;;;;;;;5073972;28;20833;-74
2022/12/30 08:55:19;;;;;;;13.17;3.97;;;;;;;;;;5071263;28;20825;-75
2022/12/30 08:58:07;;;;;;;14.07;4.47;;;;;;;;;;5078649;28;20484;-75
2022/12/30 09:00:56;;;;;;;4.67;3.40;;;;;;;;;;5068039;28;20473;-75
2022/12/30 09:03:49;;;;;;;7.57;3.90;;;;;;;;;;5078554;28;20446;-77
2022/12/30 09:06:39;;;;;;;8.90;4.20;;;;;;;;;;5075376;28;21045;-75
2022/12/30 09:09:29;;;;;;;9.33;3.90;;;;;;;;;;5070444;28;20569;-77
2022/12/30 09:12:18;;;;;;;8.23;4.00;;;;;;;;;;5069373;28;20522;-76
2022/12/30 09:15:07;;;;;;;10.93;4.47;;;;;;;;;;5074466;28;20830;-76
2022/12/30 09:17:56;;;;;;;9.33;3.70;;;;;;;;;;5075610;28;20481;-77
2022/12/30 09:20:48;;;;;;;5.13;3.30;;;;;;;;;;5090087;28;20615;-78
2022/12/30 09:23:37;;;;;;;8.10;4.20;;;;;;;;;;5089968;28;20537;-76
2022/12/30 09:26:27;;;;;;;9.33;4.10;;;;;;;;;;5073465;28;20466;-77
2022/12/30 09:29:16;;;;;;;9.10;3.57;;;;;;;;;;5073811;28;20482;-78
2022/12/30 09:32:05;;;;;;;7.60;3.33;;;;;;;;;;5076577;28;20473;-78
2022/12/30 09:34:53;;;;;;;9.40;4.03;;;;;;;;;;5076994;28;20458;-78
2022/12/30 09:37:43;;;;;;;12.90;4.37;;;;;;;;;;5066617;28;20454;-78
2022/12/30 09:40:39;;;;;;;9.03;3.83;;;;;;;;;;5074511;28;20465;-76
2022/12/30 09:43:31;;;;;;;7.60;3.90;;;;;;;;;;5073149;28;20447;-78
2022/12/30 09:46:37;;;;;;;9.60;3.50;;;;;;;;;;5072503;28;20518;-78
2022/12/30 09:49:29;;;;;;;9.90;4.33;;;;;;;;;;5072446;28;20842;-75
2022/12/30 09:52:21;;;;;;;8.77;4.00;;;;;;;;;;5072901;28;20481;-76
2022/12/30 09:55:17;;;;;;;9.70;3.13;;;;;;;;;;5075328;28;20461;-76
2022/12/30 09:58:07;;;;;;;6.20;3.00;;;;;;;;;;5077488;28;20956;-75
2022/12/30 10:00:58;;;;;;;6.53;3.20;;;;;;;;;;5078192;28;20539;-75
2022/12/30 10:03:47;;;;;;;9.37;3.70;;;;;;;;;;5075062;28;20508;-75
2022/12/30 10:06:53;;;;;;;7.70;3.20;;;;;;;;;;5077941;28;20461;-76
2022/12/30 10:09:50;;;;;;;9.00;3.40;;;;;;;;;;5070246;28;20473;-77
2022/12/30 10:12:48;;;;;;;6.00;3.13;;;;;;;;;;5080758;28;21008;-76
2022/12/30 10:15:42;;;;;;;7.57;3.07;;;;;;;;;;5073660;28;20519;-77
2022/12/30 10:18:46;;;;;;;7.07;2.87;;;;;;;;;;5079904;28;20976;-77
2022/12/30 10:21:42;;;;;;;9.77;2.90;;;;;;;;;;5063063;28;20475;-76
2022/12/30 10:24:41;;;;;;;5.50;2.60;;;;;;;;;;5059559;28;20472;-77
2022/12/30 10:27:32;;;;;;;8.67;3.60;;;;;;;;;;5050212;28;20557;-77
2022/12/30 10:30:29;;;;;;;3.10;1.93;;;;;;;;;;5047639;28;20569;-77
2022/12/30 10:33:19;;;;;;;5.40;3.10;;;;;;;;;;5072635;28;20471;-75
2022/12/30 10:36:13;;;;;;;6.50;2.70;;;;;;;;;;5071986;28;20454;-77
2022/12/30 10:39:10;;;;;;;7.50;2.70;;;;;;;;;;5060373;28;20587;-76
2022/12/30 10:42:06;;;;;;;8.03;2.67;;;;;;;;;;5074589;28;20475;-76
2022/12/30 10:45:04;;;;;;;6.07;2.40;;;;;;;;;;5073381;28;20979;-76
2022/12/30 10:47:57;;;;;;;6.43;2.67;;;;;;;;;;5076891;28;20995;-77
2022/12/30 10:50:48;;;;;;;7.13;2.73;;;;;;;;;;5072646;28;20884;-77
2022/12/30 10:53:37;;;;;;;9.10;2.93;;;;;;;;;;5071444;28;20810;-76
2022/12/30 10:56:30;;;;;;;5.10;2.23;;;;;;;;;;5072780;28;20458;-73
2022/12/30 10:59:20;;;;;;;5.50;2.50;;;;;;;;;;5074790;28;20544;-76
2022/12/30 11:02:16;;;;;;;6.93;2.90;;;;;;;;;;5056741;28;20474;-75
2022/12/30 11:05:26;;;;;;;8.23;2.60;;;;;;;;;;5042989;28;20451;-76
2022/12/30 11:08:27;;;;;;;6.93;2.70;;;;;;;;;;5048390;28;20490;-75
2022/12/30 11:11:16;;;;;;;5.90;2.60;;;;;;;;;;5067950;28;20472;-75
2022/12/30 11:17:25;;;;;;;6.60;2.63;;;;;;;;;;5073256;28;20568;-76
2022/12/30 11:20:30;;;;;;;8.97;2.40;;;;;;;;;;5076849;28;20442;-77
2022/12/30 11:23:25;;;;;;;6.03;2.43;;;;;;;;;;5070021;28;20452;-77
2022/12/30 11:26:19;;;;;;;8.07;2.73;;;;;;;;;;5075331;28;20848;-77
2022/12/30 11:29:09;;;;;;;3.73;2.17;;;;;;;;;;5069035;28;20478;-77
2022/12/30 11:31:58;;;;;;;5.10;2.00;;;;;;;;;;5066461;28;20565;-76
2022/12/30 11:34:49;;;;;;;6.13;2.23;;;;;;;;;;5072075;28;20492;-76
2022/12/30 11:37:41;;;;;;;4.97;2.20;;;;;;;;;;5070251;28;20455;-76
2022/12/30 11:40:32;;;;;;;6.03;2.70;;;;;;;;;;5063766;28;20529;-74
2022/12/30 11:43:21;;;;;;;6.60;2.60;;;;;;;;;;5074710;28;20598;-78
2022/12/30 11:46:13;;;;;;;5.80;2.50;;;;;;;;;;5072207;28;20576;-77
2022/12/30 11:49:03;;;;;;;8.50;2.00;;;;;;;;;;5081599;28;21061;-77
2022/12/30 11:51:54;;;;;;;5.50;2.20;;;;;;;;;;5080046;28;20481;-76
2022/12/30 11:54:45;;;;;;;8.70;2.43;;;;;;;;;;5065183;28;21322;-77
2022/12/30 11:57:42;;;;;;;6.50;2.40;;;;;;;;;;5071934;28;20449;-77
2022/12/30 12:00:36;;;;;;;8.13;2.40;;;;;;;;;;5070925;28;20485;-77
2022/12/30 12:03:25;;;;;;;8.13;2.17;;;;;;;;;;5073922;28;20441;-77
2022/12/30 12:06:14;;;;;;;4.30;2.10;;;;;;;;;;5074035;28;20451;-77
2022/12/30 12:09:09;;;;;;;3.00;2.07;;;;;;;;;;5071288;28;20473;-76
2022/12/30 12:12:01;;;;;;;4.90;1.80;;;;;;;;;;5060063;28;20484;-75
2022/12/30 12:14:56;;;;;;;7.30;2.00;;;;;;;;;;5070991;28;20456;-75
2022/12/30 12:17:46;;;;;;;4.83;1.50;;;;;;;;;;5075394;28;22055;-75
2022/12/30 12:20:37;;;;;;;5.63;2.10;;;;;;;;;;5072406;28;21080;-76
2022/12/30 12:23:27;;;;;;;6.13;2.00;;;;;;;;;;5075258;28;20495;-75
2022/12/30 12:26:18;;;;;;;4.97;2.10;;;;;;;;;;5071172;28;20461;-75
2022/12/30 12:29:12;;;;;;;7.13;2.30;;;;;;;;;;5074729;28;20484;-74
2022/12/30 12:32:09;;;;;;;7.43;2.63;;;;;;;;;;5063845;28;20506;-74
2022/12/30 12:35:24;;;;;;;7.87;2.30;;;;;;;;;;5071648;28;20571;-75
2022/12/30 12:38:24;;;;;;;4.30;2.00;;;;;;;;;;5067247;28;20469;-75
2022/12/30 12:41:18;;;;;;;5.97;2.00;;;;;;;;;;5068615;28;20568;-75
2022/12/30 12:44:18;;;;;;;3.03;1.90;;;;;;;;;;5071367;28;20455;-75
2022/12/30 12:47:13;;;;;;;5.53;2.30;;;;;;;;;;5074632;28;20483;-75
2022/12/30 12:50:08;;;;;;;3.67;1.93;;;;;;;;;;5077657;28;20443;-75
2022/12/30 12:53:05;;;;;;;2.70;1.60;;;;;;;;;;5081264;28;20487;-75
2022/12/30 12:56:21;;;;;;;7.93;2.00;;;;;;;;;;5072351;28;22546;-75
2022/12/30 12:59:19;;;;;;;4.20;1.97;;;;;;;;;;5035668;28;20481;-75
2022/12/30 13:02:17;;;;;;;3.23;1.70;;;;;;;;;;5077224;28;20478;-74
2022/12/30 13:05:28;;;;;;;5.13;2.20;;;;;;;;;;5079167;28;20478;-75
2022/12/30 13:08:24;;;;;;;5.10;2.40;;;;;;;;;;5075664;28;20928;-74
2022/12/30 13:11:16;;;;;;;4.50;1.60;;;;;;;;;;5061877;28;20484;-75
2022/12/30 13:14:29;;;;;;;4.07;2.10;;;;;;;;;;5077854;28;20453;-74
2022/12/30 13:17:19;;;;;;;3.07;1.63;;;;;;;;;;5079352;28;20453;-74
2022/12/30 13:20:09;;;;;;;5.00;2.40;;;;;;;;;;5074953;28;20449;-75
2022/12/30 13:22:59;;;;;;;4.80;2.50;;;;;;;;;;5075876;28;20573;-75
2022/12/30 13:25:51;;;;;;;4.47;2.10;;;;;;;;;;5069658;28;20568;-75
2022/12/30 13:28:40;;;;;;;5.63;2.47;;;;;;;;;;5068388;28;21532;-75
2022/12/30 13:31:35;;;;;;;11.50;3.27;;;;;;;;;;5062163;28;21061;-70
2022/12/30 13:34:28;;;;;;;3.23;1.70;;;;;;;;;;5071840;28;20453;-74
2022/12/30 13:37:20;;;;;;;4.63;2.10;;;;;;;;;;5070259;28;20457;-75
2022/12/30 13:40:14;;;;;;;4.90;3.10;;;;;;;;;;5073769;28;20465;-74
2022/12/30 13:43:10;;;;;;;5.43;2.27;;;;;;;;;;5080779;28;20450;-76
2022/12/30 13:46:01;;;;;;;3.30;1.80;;;;;;;;;;5078283;28;20501;-75
2022/12/30 13:48:52;;;;;;;5.77;1.80;;;;;;;;;;5070525;28;20918;-75
2022/12/30 13:51:41;;;;;;;6.70;2.20;;;;;;;;;;5063584;28;20475;-78
2022/12/30 13:54:31;;;;;;;7.10;2.20;;;;;;;;;;5073197;28;20446;-77
2022/12/30 13:57:29;;;;;;;3.57;1.60;;;;;;;;;;5074097;28;20445;-75
2022/12/30 14:00:28;;;;;;;3.97;2.00;;;;;;;;;;5072130;28;20541;-76
2022/12/30 14:03:36;;;;;;;3.43;1.87;;;;;;;;;;5078466;28;20528;-75
2022/12/30 14:06:30;;;;;;;2.27;1.70;;;;;;;;;;5075229;28;20503;-74
2022/12/30 14:09:19;;;;;;;3.60;2.07;;;;;;;;;;5073817;28;20476;-72
2022/12/30 14:12:27;;;;;;;6.20;2.20;;;;;;;;;;5065548;28;20481;-72
2022/12/30 14:15:34;;;;;;;5.53;1.90;;;;;;;;;;5073769;28;20511;-74
2022/12/30 14:18:38;;;;;;;3.43;1.63;;;;;;;;;;5065506;28;20649;-74
2022/12/30 14:21:44;;;;;;;4.40;2.00;;;;;;;;;;5072891;28;21051;-72
2022/12/30 14:31:24;;;;;;;2.80;1.60;;;;;;;;;;4954263;28;20485;-73
2022/12/30 14:34:22;;;;;;;2.57;1.50;;;;;;;;;;4961111;28;20465;-73
2022/12/30 14:37:21;;;;;;;4.50;2.00;;;;;;;;;;4951866;28;20573;-73
2022/12/30 14:40:30;;;;;;;3.13;2.13;;;;;;;;;;4938503;28;20980;-73
2022/12/30 14:43:21;;;;;;;4.83;1.70;;;;;;;;;;4934704;28;20459;-74
2022/12/30 14:46:28;;;;;;;3.57;2.13;;;;;;;;;;4942086;28;20471;-74
2022/12/30 14:49:20;;;;;;;5.87;1.93;;;;;;;;;;4939013;28;21068;-75
2022/12/30 14:52:17;;;;;;;3.17;1.70;;;;;;;;;;4943905;28;20496;-73
2022/12/30 14:55:11;;;;;;;3.53;2.20;;;;;;;;;;4943449;28;20455;-76
2022/12/30 14:58:02;;;;;;;3.20;2.13;;;;;;;;;;4949440;28;20479;-76
2022/12/30 15:00:52;;;;;;;7.43;2.20;;;;;;;;;;4937232;28;21155;-75
2022/12/30 15:03:41;;;;;;;7.40;3.10;;;;;;;;;;4945960;28;20463;-75
2022/12/30 15:06:33;;;;;;;9.30;4.50;;;;;;;;;;4945930;28;21873;-76
2022/12/30 15:09:24;;;;;;;5.90;2.63;;;;;;;;;;4944287;28;20471;-74
2022/12/30 15:12:14;;;;;;;9.10;6.23;;;;;;;;;;4947390;28;20479;-76
2022/12/30 15:15:03;;;;;;;3.97;2.33;;;;;;;;;;4943112;28;21445;-74
2022/12/30 15:17:51;;;;;;;5.30;2.93;;;;;;;;;;4949595;28;20462;-73
2022/12/30 15:20:40;;;;;;;5.80;2.97;;;;;;;;;;4937421;28;20494;-75
2022/12/30 15:23:30;;;;;;;3.90;2.10;;;;;;;;;;4944705;28;20452;-76
2022/12/30 15:26:19;;;;;;;6.47;2.83;;;;;;;;;;4945059;28;20464;-74
2022/12/30 15:29:08;;;;;;;4.00;1.90;;;;;;;;;;4948441;28;20495;-75
2022/12/30 15:31:58;;;;;;;6.00;3.77;;;;;;;;;;4938387;28;20482;-76
2022/12/30 15:34:46;;;;;;;5.57;2.43;;;;;;;;;;4931712;28;21094;-76
2022/12/30 15:37:36;;;;;;;8.43;5.23;;;;;;;;;;4945471;28;20487;-77
2022/12/30 15:40:26;;;;;;;5.90;2.37;;;;;;;;;;4945329;28;20475;-76
2022/12/30 15:43:16;;;;;;;3.90;2.40;;;;;;;;;;4941934;28;20470;-77
2022/12/30 15:46:06;;;;;;;4.40;2.80;;;;;;;;;;4944500;28;20495;-73
2022/12/30 15:49:09;;;;;;;2.90;2.40;;;;;;;;;;4948696;28;20586;-77
2022/12/30 15:51:59;;;;;;;3.03;2.10;;;;;;;;;;4945877;28;20613;-77
2022/12/30 15:54:49;;;;;;;5.13;3.80;;;;;;;;;;4945362;28;20516;-76
2022/12/30 15:57:39;;;;;;;3.37;2.33;;;;;;;;;;4945466;28;20555;-75
2022/12/30 16:00:28;;;;;;;5.20;3.30;;;;;;;;;;4942916;28;20497;-75
2022/12/30 16:03:16;;;;;;;4.93;2.17;;;;;;;;;;4944975;28;20463;-75
2022/12/30 16:06:06;;;;;;;4.97;2.87;;;;;;;;;;4943749;28;20570;-76
2022/12/30 16:08:55;;;;;;;3.20;2.03;;;;;;;;;;4944196;28;20562;-76
2022/12/30 16:11:51;;;;;;;2.93;1.60;;;;;;;;;;4947671;28;20480;-75
2022/12/30 16:15:07;;;;;;;4.00;1.93;;;;;;;;;;4948154;28;20823;-75
2022/12/30 16:17:58;;;;;;;4.67;2.30;;;;;;;;;;4950812;28;20459;-76
2022/12/30 16:20:56;;;;;;;2.67;2.10;;;;;;;;;;4943959;28;20908;-76
2022/12/30 16:23:46;;;;;;;2.53;2.03;;;;;;;;;;4947912;28;20894;-76
2022/12/30 16:26:34;;;;;;;5.13;2.60;;;;;;;;;;4938559;28;20822;-76
2022/12/30 16:29:27;;;;;;;2.17;1.97;;;;;;;;;;4930339;28;20486;-76
2022/12/30 16:32:19;;;;;;;4.13;2.10;;;;;;;;;;4942648;28;20533;-76
2022/12/30 16:35:09;;;;;;;6.20;2.50;;;;;;;;;;4939027;28;20503;-77
2022/12/30 16:37:58;;;;;;;3.23;2.20;;;;;;;;;;4939415;28;21145;-76
2022/12/30 16:40:46;;;;;;;3.90;2.43;;;;;;;;;;4946120;28;21173;-75
2022/12/30 16:43:35;;;;;;;2.20;2.00;;;;;;;;;;4944097;28;20455;-76
2022/12/30 16:46:28;;;;;;;3.63;1.97;;;;;;;;;;4925879;28;20566;-76
2022/12/30 16:49:18;;;;;;;3.70;2.50;;;;;;;;;;4942810;28;20479;-75
2022/12/30 16:52:07;;;;;;;3.87;2.00;;;;;;;;;;4936293;28;20480;-75
2022/12/30 16:54:57;;;;;;;3.13;2.03;;;;;;;;;;4938418;28;20506;-76
2022/12/30 16:57:46;;;;;;;3.77;1.80;;;;;;;;;;4946365;28;20964;-75
2022/12/30 17:00:35;;;;;;;2.87;1.93;;;;;;;;;;4925662;28;20483;-73
2022/12/30 17:03:26;;;;;;;3.63;1.90;;;;;;;;;;4943859;28;20467;-73
2022/12/30 17:06:17;;;;;;;3.67;1.83;;;;;;;;;;4944516;28;20471;-73
2022/12/30 17:09:05;;;;;;;3.80;2.30;;;;;;;;;;4944140;28;20471;-76
2022/12/30 17:11:54;;;;;;;4.03;2.10;;;;;;;;;;4943311;28;21083;-75
2022/12/30 17:14:42;;;;;;;2.00;1.57;;;;;;;;;;4942538;28;21098;-75
2022/12/30 17:17:31;;;;;;;3.47;2.37;;;;;;;;;;4935808;28;20836;-77
2022/12/30 17:20:20;;;;;;;3.33;1.80;;;;;;;;;;4936322;28;20617;-75
2022/12/30 17:23:15;;;;;;;3.37;1.90;;;;;;;;;;4938819;28;20468;-74
2022/12/30 17:26:05;;;;;;;5.10;1.77;;;;;;;;;;4918602;28;20534;-71
2022/12/30 17:28:53;;;;;;;4.00;1.90;;;;;;;;;;4935442;28;20542;-73
2022/12/30 17:31:44;;;;;;;5.80;2.30;;;;;;;;;;4931152;28;20483;-73
2022/12/30 17:34:33;;;;;;;2.80;1.60;;;;;;;;;;4934115;28;21090;-73
2022/12/30 17:37:23;;;;;;;3.20;2.17;;;;;;;;;;4930398;28;20890;-71
2022/12/30 17:40:15;;;;;;;4.10;2.30;;;;;;;;;;4930109;28;20455;-72
2022/12/30 17:43:06;;;;;;;3.63;2.37;;;;;;;;;;4930511;28;20497;-71
2022/12/30 17:45:55;;;;;;;4.20;1.97;;;;;;;;;;4929513;28;20455;-71
2022/12/30 17:48:44;;;;;;;4.23;1.80;;;;;;;;;;4938210;28;20491;-71
2022/12/30 17:51:32;;;;;;;3.53;1.87;;;;;;;;;;4923645;28;20553;-71
2022/12/30 17:54:23;;;;;;;4.13;2.37;;;;;;;;;;4939168;28;20515;-73
2022/12/30 17:57:13;;;;;;;5.60;2.17;;;;;;;;;;4945316;28;20456;-72
2022/12/30 18:00:02;;;;;;;3.70;1.97;;;;;;;;;;4942411;28;20475;-72
2022/12/30 18:02:50;;;;;;;4.30;1.80;;;;;;;;;;4947571;28;20471;-75
2022/12/30 18:05:41;;;;;;;4.67;1.93;;;;;;;;;;4937803;28;20518;-73
2022/12/30 18:08:33;;;;;;;3.03;1.80;;;;;;;;;;4936648;28;21020;-71
2022/12/30 18:11:23;;;;;;;3.50;2.00;;;;;;;;;;4930627;28;20495;-75
2022/12/30 18:14:13;;;;;;;3.07;1.90;;;;;;;;;;4928222;28;20479;-73
2022/12/30 18:17:02;;;;;;;2.10;1.80;;;;;;;;;;4938859;28;20464;-73